sensor_id;sensor_type;location;lat;lon;timestamp;pressure;altitude;pressure_sealevel;temperature
21336;BMP180;69435;52.670;13.544;2023-07-13T00:00:38;100655.00;;;22.00
21336;BMP180;69435;52.670;13.544;2023-07-13T00:03:24;100659.00;;;22.00
21336;BMP180;69435;52.670;13.544;2023-07-13T00:06:10;100645.00;;;22.00
21336;BMP180;69435;52.670;13.544;2023-07-13T00:08:56;100653.00;;;21.90
21336;BMP180;69435;52.670;13.544;2023-07-13T00:11:43;100636.00;;;21.90
21336;BMP180;69435;52.670;13.544;2023-07-13T00:14:30;100632.00;;;21.90
21336;BMP180;69435;52.670;13.544;2023-07-13T00:17:16;100648.00;;;21.90
21336;BMP180;69435;52.670;13.544;2023-07-13T00:20:03;100615.00;;;21.90
21336;BMP180;69435;52.670;13.544;2023-07-13T00:22:49;100634.00;;;21.80
21336;BMP180;69435;52.670;13.544;2023-07-13T00:25:36;100645.00;;;21.80
21336;BMP180;69435;52.670;13.544;2023-07-13T00:28:22;100643.00;;;21.80
21336;BMP180;69435;52.670;13.544;2023-07-13T00:31:10;100641.00;;;21.70
21336;BMP180;69435;52.670;13.544;2023-07-13T00:33:56;100654.00;;;21.70
21336;BMP180;69435;52.670;13.544;2023-07-13T00:36:42;100648.00;;;21.70
21336;BMP180;69435;52.670;13.544;2023-07-13T00:39:28;100648.00;;;21.70
21336;BMP180;69435;52.670;13.544;2023-07-13T00:42:14;100632.00;;;21.60
21336;BMP180;69435;52.670;13.544;2023-07-13T00:48:07;100638.00;;;21.60
21336;BMP180;69435;52.670;13.544;2023-07-13T00:50:57;100633.00;;;21.60
21336;BMP180;69435;52.670;13.544;2023-07-13T00:53:44;100636.00;;;21.50
21336;BMP180;69435;52.670;13.544;2023-07-13T00:56:32;100632.00;;;21.50
21336;BMP180;69435;52.670;13.544;2023-07-13T00:59:21;100633.00;;;21.50
21336;BMP180;69435;52.670;13.544;2023-07-13T01:02:08;100630.00;;;21.40
21336;BMP180;69435;52.670;13.544;2023-07-13T01:04:55;100630.00;;;21.30
21336;BMP180;69435;52.670;13.544;2023-07-13T01:07:44;100644.00;;;21.30
21336;BMP180;69435;52.670;13.544;2023-07-13T01:10:30;100627.00;;;21.30
21336;BMP180;69435;52.670;13.544;2023-07-13T01:13:23;100645.00;;;21.20
21336;BMP180;69435;52.670;13.544;2023-07-13T01:16:22;100639.00;;;21.20
21336;BMP180;69435;52.670;13.544;2023-07-13T01:19:23;100646.00;;;21.20
21336;BMP180;69435;52.670;13.544;2023-07-13T01:22:18;100634.00;;;21.20
21336;BMP180;69435;52.670;13.544;2023-07-13T01:25:04;100639.00;;;21.10
21336;BMP180;69435;52.670;13.544;2023-07-13T01:27:50;100655.00;;;21.10
21336;BMP180;69435;52.670;13.544;2023-07-13T01:30:39;100657.00;;;21.00
21336;BMP180;69435;52.670;13.544;2023-07-13T01:33:26;100645.00;;;21.00
21336;BMP180;69435;52.670;13.544;2023-07-13T01:36:12;100643.00;;;20.90
21336;BMP180;69435;52.670;13.544;2023-07-13T01:38:58;100647.00;;;20.90
21336;BMP180;69435;52.670;13.544;2023-07-13T01:41:44;100653.00;;;20.80
21336;BMP180;69435;52.670;13.544;2023-07-13T01:44:30;100656.00;;;20.80
21336;BMP180;69435;52.670;13.544;2023-07-13T01:47:16;100641.00;;;20.70
21336;BMP180;69435;52.670;13.544;2023-07-13T01:50:02;100637.00;;;20.70
21336;BMP180;69435;52.670;13.544;2023-07-13T01:52:48;100636.00;;;20.70
21336;BMP180;69435;52.670;13.544;2023-07-13T01:55:35;100632.00;;;20.70
21336;BMP180;69435;52.670;13.544;2023-07-13T01:58:21;100638.00;;;20.60
21336;BMP180;69435;52.670;13.544;2023-07-13T02:01:07;100639.00;;;20.60
21336;BMP180;69435;52.670;13.544;2023-07-13T02:03:53;100628.00;;;20.60
21336;BMP180;69435;52.670;13.544;2023-07-13T02:06:39;100646.00;;;20.60
21336;BMP180;69435;52.670;13.544;2023-07-13T02:09:25;100628.00;;;20.60
21336;BMP180;69435;52.670;13.544;2023-07-13T02:12:11;100645.00;;;20.50
21336;BMP180;69435;52.670;13.544;2023-07-13T02:14:57;100642.00;;;20.50
21336;BMP180;69435;52.670;13.544;2023-07-13T02:17:43;100648.00;;;20.60
21336;BMP180;69435;52.670;13.544;2023-07-13T02:20:29;100636.00;;;20.60
21336;BMP180;69435;52.670;13.544;2023-07-13T02:23:15;100642.00;;;20.50
21336;BMP180;69435;52.670;13.544;2023-07-13T02:26:03;100656.00;;;20.60
21336;BMP180;69435;52.670;13.544;2023-07-13T02:28:49;100637.00;;;20.50
21336;BMP180;69435;52.670;13.544;2023-07-13T02:31:35;100645.00;;;20.50
21336;BMP180;69435;52.670;13.544;2023-07-13T02:34:21;100656.00;;;20.50
21336;BMP180;69435;52.670;13.544;2023-07-13T02:37:07;100654.00;;;20.50
21336;BMP180;69435;52.670;13.544;2023-07-13T02:39:53;100651.00;;;20.50
21336;BMP180;69435;52.670;13.544;2023-07-13T02:42:40;100654.00;;;20.40
21336;BMP180;69435;52.670;13.544;2023-07-13T02:45:27;100652.00;;;20.40
21336;BMP180;69435;52.670;13.544;2023-07-13T02:48:14;100649.00;;;20.40
21336;BMP180;69435;52.670;13.544;2023-07-13T02:51:00;100658.00;;;20.40
21336;BMP180;69435;52.670;13.544;2023-07-13T02:53:46;100641.00;;;20.40
21336;BMP180;69435;52.670;13.544;2023-07-13T02:56:32;100639.00;;;20.40
21336;BMP180;69435;52.670;13.544;2023-07-13T02:59:18;100646.00;;;20.30
21336;BMP180;69435;52.670;13.544;2023-07-13T03:02:04;100655.00;;;20.30
21336;BMP180;69435;52.670;13.544;2023-07-13T03:04:50;100656.00;;;20.30
21336;BMP180;69435;52.670;13.544;2023-07-13T03:07:36;100682.00;;;20.20
21336;BMP180;69435;52.670;13.544;2023-07-13T03:10:22;100679.00;;;20.20
21336;BMP180;69435;52.670;13.544;2023-07-13T03:13:08;100678.00;;;20.20
21336;BMP180;69435;52.670;13.544;2023-07-13T03:15:54;100679.00;;;20.20
21336;BMP180;69435;52.670;13.544;2023-07-13T03:18:40;100679.00;;;20.20
21336;BMP180;69435;52.670;13.544;2023-07-13T03:21:26;100675.00;;;20.20
21336;BMP180;69435;52.670;13.544;2023-07-13T03:24:12;100664.00;;;20.20
21336;BMP180;69435;52.670;13.544;2023-07-13T03:27:00;100664.00;;;20.20
21336;BMP180;69435;52.670;13.544;2023-07-13T03:29:46;100687.00;;;20.20
21336;BMP180;69435;52.670;13.544;2023-07-13T03:32:32;100678.00;;;20.20
21336;BMP180;69435;52.670;13.544;2023-07-13T03:35:19;100690.00;;;20.20
21336;BMP180;69435;52.670;13.544;2023-07-13T03:38:05;100647.00;;;20.10
21336;BMP180;69435;52.670;13.544;2023-07-13T03:40:50;100685.00;;;20.10
21336;BMP180;69435;52.670;13.544;2023-07-13T03:43:37;100688.00;;;20.00
21336;BMP180;69435;52.670;13.544;2023-07-13T03:46:23;100691.00;;;20.10
21336;BMP180;69435;52.670;13.544;2023-07-13T03:49:10;100695.00;;;20.10
21336;BMP180;69435;52.670;13.544;2023-07-13T03:51:56;100688.00;;;20.10
21336;BMP180;69435;52.670;13.544;2023-07-13T03:54:42;100685.00;;;20.10
21336;BMP180;69435;52.670;13.544;2023-07-13T03:57:28;100700.00;;;20.10
21336;BMP180;69435;52.670;13.544;2023-07-13T04:00:14;100693.00;;;20.10
21336;BMP180;69435;52.670;13.544;2023-07-13T04:03:01;100682.00;;;20.20
21336;BMP180;69435;52.670;13.544;2023-07-13T04:05:47;100708.00;;;20.20
21336;BMP180;69435;52.670;13.544;2023-07-13T04:08:36;100704.00;;;20.30
21336;BMP180;69435;52.670;13.544;2023-07-13T04:11:25;100710.00;;;20.30
21336;BMP180;69435;52.670;13.544;2023-07-13T04:14:12;100698.00;;;20.30
21336;BMP180;69435;52.670;13.544;2023-07-13T04:16:57;100703.00;;;20.40
21336;BMP180;69435;52.670;13.544;2023-07-13T04:19:43;100702.00;;;20.40
21336;BMP180;69435;52.670;13.544;2023-07-13T04:22:31;100715.00;;;20.50
21336;BMP180;69435;52.670;13.544;2023-07-13T04:25:17;100712.00;;;20.50
21336;BMP180;69435;52.670;13.544;2023-07-13T04:28:04;100717.00;;;20.60
21336;BMP180;69435;52.670;13.544;2023-07-13T04:30:51;100694.00;;;20.70
21336;BMP180;69435;52.670;13.544;2023-07-13T04:33:37;100713.00;;;20.80
21336;BMP180;69435;52.670;13.544;2023-07-13T04:36:25;100698.00;;;20.90
21336;BMP180;69435;52.670;13.544;2023-07-13T04:39:14;100712.00;;;21.00
21336;BMP180;69435;52.670;13.544;2023-07-13T04:42:00;100712.00;;;21.00
21336;BMP180;69435;52.670;13.544;2023-07-13T04:44:50;100727.00;;;21.20
21336;BMP180;69435;52.670;13.544;2023-07-13T04:47:37;100729.00;;;21.30
21336;BMP180;69435;52.670;13.544;2023-07-13T04:50:23;100728.00;;;21.40
21336;BMP180;69435;52.670;13.544;2023-07-13T04:53:10;100738.00;;;21.50
21336;BMP180;69435;52.670;13.544;2023-07-13T04:55:56;100747.00;;;21.60
21336;BMP180;69435;52.670;13.544;2023-07-13T04:58:42;100728.00;;;21.70
21336;BMP180;69435;52.670;13.544;2023-07-13T05:01:28;100719.00;;;21.80
21336;BMP180;69435;52.670;13.544;2023-07-13T05:04:14;100740.00;;;21.90
21336;BMP180;69435;52.670;13.544;2023-07-13T05:07:00;100733.00;;;22.00
21336;BMP180;69435;52.670;13.544;2023-07-13T05:09:46;100738.00;;;22.00
21336;BMP180;69435;52.670;13.544;2023-07-13T05:12:32;100716.00;;;22.10
21336;BMP180;69435;52.670;13.544;2023-07-13T05:15:23;100735.00;;;22.30
21336;BMP180;69435;52.670;13.544;2023-07-13T05:18:09;100752.00;;;22.30
21336;BMP180;69435;52.670;13.544;2023-07-13T05:21:05;100741.00;;;22.40
21336;BMP180;69435;52.670;13.544;2023-07-13T05:23:52;100745.00;;;22.50
21336;BMP180;69435;52.670;13.544;2023-07-13T05:26:38;100734.00;;;22.50
21336;BMP180;69435;52.670;13.544;2023-07-13T05:29:24;100751.00;;;22.70
21336;BMP180;69435;52.670;13.544;2023-07-13T05:32:10;100740.00;;;22.80
21336;BMP180;69435;52.670;13.544;2023-07-13T05:34:56;100747.00;;;22.90
21336;BMP180;69435;52.670;13.544;2023-07-13T05:37:42;100749.00;;;23.00
21336;BMP180;69435;52.670;13.544;2023-07-13T05:40:28;100739.00;;;23.10
21336;BMP180;69435;52.670;13.544;2023-07-13T05:43:14;100739.00;;;23.20
21336;BMP180;69435;52.670;13.544;2023-07-13T05:46:01;100756.00;;;23.30
21336;BMP180;69435;52.670;13.544;2023-07-13T05:48:47;100741.00;;;23.40
21336;BMP180;69435;52.670;13.544;2023-07-13T05:51:33;100742.00;;;23.50
21336;BMP180;69435;52.670;13.544;2023-07-13T05:54:19;100758.00;;;23.60
21336;BMP180;69435;52.670;13.544;2023-07-13T05:57:05;100761.00;;;23.60
21336;BMP180;69435;52.670;13.544;2023-07-13T05:59:51;100749.00;;;23.80
21336;BMP180;69435;52.670;13.544;2023-07-13T06:02:37;100766.00;;;23.90
21336;BMP180;69435;52.670;13.544;2023-07-13T06:05:23;100757.00;;;24.00
21336;BMP180;69435;52.670;13.544;2023-07-13T06:08:09;100737.00;;;24.00
21336;BMP180;69435;52.670;13.544;2023-07-13T06:11:08;100762.00;;;24.30
21336;BMP180;69435;52.670;13.544;2023-07-13T06:13:56;100744.00;;;24.30
21336;BMP180;69435;52.670;13.544;2023-07-13T06:16:42;100772.00;;;24.40
21336;BMP180;69435;52.670;13.544;2023-07-13T06:19:28;100757.00;;;24.50
21336;BMP180;69435;52.670;13.544;2023-07-13T06:22:15;100755.00;;;24.70
21336;BMP180;69435;52.670;13.544;2023-07-13T06:25:01;100761.00;;;24.80
21336;BMP180;69435;52.670;13.544;2023-07-13T06:27:47;100756.00;;;25.00
21336;BMP180;69435;52.670;13.544;2023-07-13T06:30:32;100758.00;;;25.10
21336;BMP180;69435;52.670;13.544;2023-07-13T06:33:18;100760.00;;;25.30
21336;BMP180;69435;52.670;13.544;2023-07-13T06:36:06;100748.00;;;25.40
21336;BMP180;69435;52.670;13.544;2023-07-13T06:38:53;100751.00;;;25.50
21336;BMP180;69435;52.670;13.544;2023-07-13T06:41:39;100754.00;;;25.50
21336;BMP180;69435;52.670;13.544;2023-07-13T06:44:25;100750.00;;;25.50
21336;BMP180;69435;52.670;13.544;2023-07-13T06:47:11;100758.00;;;25.60
21336;BMP180;69435;52.670;13.544;2023-07-13T06:49:57;100747.00;;;25.60
21336;BMP180;69435;52.670;13.544;2023-07-13T06:52:43;100751.00;;;25.70
21336;BMP180;69435;52.670;13.544;2023-07-13T06:55:29;100748.00;;;25.80
21336;BMP180;69435;52.670;13.544;2023-07-13T06:58:17;100759.00;;;25.90
21336;BMP180;69435;52.670;13.544;2023-07-13T07:01:04;100750.00;;;26.00
21336;BMP180;69435;52.670;13.544;2023-07-13T07:03:50;100729.00;;;26.10
21336;BMP180;69435;52.670;13.544;2023-07-13T07:06:36;100747.00;;;26.20
21336;BMP180;69435;52.670;13.544;2023-07-13T07:09:22;100732.00;;;26.30
21336;BMP180;69435;52.670;13.544;2023-07-13T07:12:08;100735.00;;;26.50
21336;BMP180;69435;52.670;13.544;2023-07-13T07:14:54;100715.00;;;26.80
21336;BMP180;69435;52.670;13.544;2023-07-13T07:17:40;100739.00;;;27.30
21336;BMP180;69435;52.670;13.544;2023-07-13T07:20:27;100739.00;;;28.10
21336;BMP180;69435;52.670;13.544;2023-07-13T07:23:13;100752.00;;;28.70
21336;BMP180;69435;52.670;13.544;2023-07-13T07:26:00;100747.00;;;29.30
21336;BMP180;69435;52.670;13.544;2023-07-13T07:28:46;100745.00;;;30.10
21336;BMP180;69435;52.670;13.544;2023-07-13T07:31:32;100750.00;;;31.20
21336;BMP180;69435;52.670;13.544;2023-07-13T07:34:18;100746.00;;;32.30
21336;BMP180;69435;52.670;13.544;2023-07-13T07:37:05;100772.00;;;33.50
21336;BMP180;69435;52.670;13.544;2023-07-13T07:39:51;100755.00;;;34.50
21336;BMP180;69435;52.670;13.544;2023-07-13T07:42:37;100761.00;;;35.30
21336;BMP180;69435;52.670;13.544;2023-07-13T07:45:23;100760.00;;;35.90
21336;BMP180;69435;52.670;13.544;2023-07-13T07:48:09;100765.00;;;36.20
21336;BMP180;69435;52.670;13.544;2023-07-13T07:50:55;100767.00;;;36.70
21336;BMP180;69435;52.670;13.544;2023-07-13T07:53:41;100758.00;;;37.20
21336;BMP180;69435;52.670;13.544;2023-07-13T07:56:27;100770.00;;;37.70
21336;BMP180;69435;52.670;13.544;2023-07-13T07:59:13;100761.00;;;38.20
21336;BMP180;69435;52.670;13.544;2023-07-13T08:01:59;100768.00;;;38.50
21336;BMP180;69435;52.670;13.544;2023-07-13T08:04:46;100761.00;;;38.80
21336;BMP180;69435;52.670;13.544;2023-07-13T08:07:32;100778.00;;;39.00
21336;BMP180;69435;52.670;13.544;2023-07-13T08:10:18;100784.00;;;39.00
21336;BMP180;69435;52.670;13.544;2023-07-13T08:13:04;100780.00;;;39.00
21336;BMP180;69435;52.670;13.544;2023-07-13T08:15:50;100787.00;;;39.10
21336;BMP180;69435;52.670;13.544;2023-07-13T08:18:36;100778.00;;;39.10
21336;BMP180;69435;52.670;13.544;2023-07-13T08:21:22;100783.00;;;39.40
21336;BMP180;69435;52.670;13.544;2023-07-13T08:24:09;100775.00;;;39.70
21336;BMP180;69435;52.670;13.544;2023-07-13T08:26:55;100785.00;;;39.90
21336;BMP180;69435;52.670;13.544;2023-07-13T08:29:41;100789.00;;;39.90
21336;BMP180;69435;52.670;13.544;2023-07-13T08:32:27;100790.00;;;39.60
21336;BMP180;69435;52.670;13.544;2023-07-13T08:35:13;100789.00;;;39.30
21336;BMP180;69435;52.670;13.544;2023-07-13T08:37:59;100803.00;;;38.80
21336;BMP180;69435;52.670;13.544;2023-07-13T08:40:55;100799.00;;;38.30
21336;BMP180;69435;52.670;13.544;2023-07-13T08:43:46;100798.00;;;38.10
21336;BMP180;69435;52.670;13.544;2023-07-13T08:46:38;100791.00;;;38.20
21336;BMP180;69435;52.670;13.544;2023-07-13T08:49:26;100799.00;;;38.10
21336;BMP180;69435;52.670;13.544;2023-07-13T08:52:43;100787.00;;;38.30
21336;BMP180;69435;52.670;13.544;2023-07-13T08:55:33;100797.00;;;37.90
21336;BMP180;69435;52.670;13.544;2023-07-13T08:58:22;100807.00;;;37.60
21336;BMP180;69435;52.670;13.544;2023-07-13T09:01:47;100812.00;;;37.60
21336;BMP180;69435;52.670;13.544;2023-07-13T09:05:02;100807.00;;;37.60
21336;BMP180;69435;52.670;13.544;2023-07-13T09:17:50;100808.00;;;37.80
21336;BMP180;69435;52.670;13.544;2023-07-13T09:24:39;100810.00;;;38.30
21336;BMP180;69435;52.670;13.544;2023-07-13T09:27:39;100804.00;;;38.60
21336;BMP180;69435;52.670;13.544;2023-07-13T09:33:40;100774.00;;;39.40
21336;BMP180;69435;52.670;13.544;2023-07-13T09:36:33;100806.00;;;39.70
21336;BMP180;69435;52.670;13.544;2023-07-13T09:42:22;100797.00;;;39.80
21336;BMP180;69435;52.670;13.544;2023-07-13T09:45:08;100810.00;;;39.60
21336;BMP180;69435;52.670;13.544;2023-07-13T09:48:11;100815.00;;;39.60
21336;BMP180;69435;52.670;13.544;2023-07-13T09:51:13;100807.00;;;39.70
21336;BMP180;69435;52.670;13.544;2023-07-13T09:54:00;100813.00;;;39.70
21336;BMP180;69435;52.670;13.544;2023-07-13T09:56:54;100800.00;;;39.70
21336;BMP180;69435;52.670;13.544;2023-07-13T09:59:45;100810.00;;;39.30
21336;BMP180;69435;52.670;13.544;2023-07-13T10:02:35;100813.00;;;38.90
21336;BMP180;69435;52.670;13.544;2023-07-13T10:05:21;100806.00;;;38.90
21336;BMP180;69435;52.670;13.544;2023-07-13T10:11:29;100823.00;;;37.90
21336;BMP180;69435;52.670;13.544;2023-07-13T10:14:22;100806.00;;;37.10
21336;BMP180;69435;52.670;13.544;2023-07-13T10:17:18;100812.00;;;36.40
21336;BMP180;69435;52.670;13.544;2023-07-13T10:20:06;100807.00;;;36.10
21336;BMP180;69435;52.670;13.544;2023-07-13T10:23:05;100806.00;;;36.10
21336;BMP180;69435;52.670;13.544;2023-07-13T10:25:56;100804.00;;;35.70
21336;BMP180;69435;52.670;13.544;2023-07-13T10:28:47;100816.00;;;35.40
21336;BMP180;69435;52.670;13.544;2023-07-13T10:31:38;100815.00;;;35.20
21336;BMP180;69435;52.670;13.544;2023-07-13T10:34:25;100782.00;;;35.10
21336;BMP180;69435;52.670;13.544;2023-07-13T10:37:22;100814.00;;;35.10
21336;BMP180;69435;52.670;13.544;2023-07-13T10:40:18;100817.00;;;35.00
21336;BMP180;69435;52.670;13.544;2023-07-13T10:43:20;100825.00;;;34.90
21336;BMP180;69435;52.670;13.544;2023-07-13T10:46:14;100812.00;;;34.60
21336;BMP180;69435;52.670;13.544;2023-07-13T10:49:05;100815.00;;;34.40
21336;BMP180;69435;52.670;13.544;2023-07-13T10:51:53;100822.00;;;34.20
21336;BMP180;69435;52.670;13.544;2023-07-13T10:54:41;100829.00;;;33.90
21336;BMP180;69435;52.670;13.544;2023-07-13T10:57:28;100817.00;;;33.70
21336;BMP180;69435;52.670;13.544;2023-07-13T11:00:17;100806.00;;;33.90
21336;BMP180;69435;52.670;13.544;2023-07-13T11:03:04;100815.00;;;34.20
21336;BMP180;69435;52.670;13.544;2023-07-13T11:06:04;100804.00;;;34.70
21336;BMP180;69435;52.670;13.544;2023-07-13T11:09:17;100811.00;;;35.20
21336;BMP180;69435;52.670;13.544;2023-07-13T11:15:45;100798.00;;;35.70
21336;BMP180;69435;52.670;13.544;2023-07-13T11:18:33;100812.00;;;35.70
21336;BMP180;69435;52.670;13.544;2023-07-13T11:21:22;100813.00;;;35.80
21336;BMP180;69435;52.670;13.544;2023-07-13T11:24:16;100800.00;;;35.80
21336;BMP180;69435;52.670;13.544;2023-07-13T11:27:40;100795.00;;;35.90
21336;BMP180;69435;52.670;13.544;2023-07-13T11:33:25;100801.00;;;36.00
21336;BMP180;69435;52.670;13.544;2023-07-13T11:36:23;100802.00;;;36.10
21336;BMP180;69435;52.670;13.544;2023-07-13T11:39:46;100781.00;;;36.30
21336;BMP180;69435;52.670;13.544;2023-07-13T11:42:33;100786.00;;;36.10
21336;BMP180;69435;52.670;13.544;2023-07-13T11:45:22;100791.00;;;36.10
21336;BMP180;69435;52.670;13.544;2023-07-13T11:48:28;100780.00;;;36.30
21336;BMP180;69435;52.670;13.544;2023-07-13T11:51:23;100802.00;;;36.30
21336;BMP180;69435;52.670;13.544;2023-07-13T11:54:43;100782.00;;;36.30
21336;BMP180;69435;52.670;13.544;2023-07-13T11:57:58;100795.00;;;36.20
21336;BMP180;69435;52.670;13.544;2023-07-13T12:00:45;100798.00;;;36.00
21336;BMP180;69435;52.670;13.544;2023-07-13T12:03:34;100790.00;;;36.00
21336;BMP180;69435;52.670;13.544;2023-07-13T12:06:32;100788.00;;;36.10
21336;BMP180;69435;52.670;13.544;2023-07-13T12:09:18;100776.00;;;36.00
21336;BMP180;69435;52.670;13.544;2023-07-13T12:12:21;100801.00;;;36.10
21336;BMP180;69435;52.670;13.544;2023-07-13T12:15:09;100780.00;;;35.90
21336;BMP180;69435;52.670;13.544;2023-07-13T12:17:56;100766.00;;;36.10
21336;BMP180;69435;52.670;13.544;2023-07-13T12:20:44;100797.00;;;36.10
21336;BMP180;69435;52.670;13.544;2023-07-13T12:23:34;100785.00;;;36.30
21336;BMP180;69435;52.670;13.544;2023-07-13T12:26:21;100785.00;;;36.30
21336;BMP180;69435;52.670;13.544;2023-07-13T12:29:08;100793.00;;;36.30
21336;BMP180;69435;52.670;13.544;2023-07-13T12:31:54;100785.00;;;36.20
21336;BMP180;69435;52.670;13.544;2023-07-13T12:35:01;100788.00;;;36.10
21336;BMP180;69435;52.670;13.544;2023-07-13T12:37:49;100794.00;;;35.80
21336;BMP180;69435;52.670;13.544;2023-07-13T12:40:37;100768.00;;;35.80
21336;BMP180;69435;52.670;13.544;2023-07-13T12:43:24;100780.00;;;35.80
21336;BMP180;69435;52.670;13.544;2023-07-13T12:46:23;100788.00;;;35.80
21336;BMP180;69435;52.670;13.544;2023-07-13T12:49:14;100780.00;;;35.70
21336;BMP180;69435;52.670;13.544;2023-07-13T12:52:14;100774.00;;;35.60
21336;BMP180;69435;52.670;13.544;2023-07-13T12:55:16;100773.00;;;35.50
21336;BMP180;69435;52.670;13.544;2023-07-13T12:58:04;100781.00;;;35.20
21336;BMP180;69435;52.670;13.544;2023-07-13T13:00:54;100775.00;;;35.10
21336;BMP180;69435;52.670;13.544;2023-07-13T13:03:49;100782.00;;;35.00
21336;BMP180;69435;52.670;13.544;2023-07-13T13:06:37;100780.00;;;34.80
21336;BMP180;69435;52.670;13.544;2023-07-13T13:09:23;100784.00;;;34.60
21336;BMP180;69435;52.670;13.544;2023-07-13T13:12:10;100784.00;;;34.50
21336;BMP180;69435;52.670;13.544;2023-07-13T13:14:57;100775.00;;;34.40
21336;BMP180;69435;52.670;13.544;2023-07-13T13:17:43;100780.00;;;34.40
21336;BMP180;69435;52.670;13.544;2023-07-13T13:20:29;100784.00;;;34.30
21336;BMP180;69435;52.670;13.544;2023-07-13T13:23:18;100777.00;;;34.20
21336;BMP180;69435;52.670;13.544;2023-07-13T13:26:11;100783.00;;;34.30
21336;BMP180;69435;52.670;13.544;2023-07-13T13:28:58;100780.00;;;34.20
21336;BMP180;69435;52.670;13.544;2023-07-13T13:31:45;100781.00;;;34.20
21336;BMP180;69435;52.670;13.544;2023-07-13T13:34:31;100769.00;;;34.20
21336;BMP180;69435;52.670;13.544;2023-07-13T13:37:22;100780.00;;;34.10
21336;BMP180;69435;52.670;13.544;2023-07-13T13:40:21;100775.00;;;34.00
21336;BMP180;69435;52.670;13.544;2023-07-13T13:43:21;100782.00;;;33.90
21336;BMP180;69435;52.670;13.544;2023-07-13T13:46:18;100781.00;;;33.90
21336;BMP180;69435;52.670;13.544;2023-07-13T13:49:04;100793.00;;;33.90
21336;BMP180;69435;52.670;13.544;2023-07-13T13:51:52;100799.00;;;34.00
21336;BMP180;69435;52.670;13.544;2023-07-13T13:54:38;100788.00;;;34.00
21336;BMP180;69435;52.670;13.544;2023-07-13T13:57:24;100777.00;;;34.10
21336;BMP180;69435;52.670;13.544;2023-07-13T14:00:13;100781.00;;;34.10
21336;BMP180;69435;52.670;13.544;2023-07-13T14:03:00;100793.00;;;34.10
21336;BMP180;69435;52.670;13.544;2023-07-13T14:05:48;100782.00;;;34.00
21336;BMP180;69435;52.670;13.544;2023-07-13T14:08:34;100801.00;;;33.80
21336;BMP180;69435;52.670;13.544;2023-07-13T14:11:21;100795.00;;;33.70
21336;BMP180;69435;52.670;13.544;2023-07-13T14:14:19;100799.00;;;33.60
21336;BMP180;69435;52.670;13.544;2023-07-13T14:17:24;100795.00;;;33.50
21336;BMP180;69435;52.670;13.544;2023-07-13T14:20:11;100782.00;;;33.30
21336;BMP180;69435;52.670;13.544;2023-07-13T14:22:58;100793.00;;;33.20
21336;BMP180;69435;52.670;13.544;2023-07-13T14:25:45;100796.00;;;33.10
21336;BMP180;69435;52.670;13.544;2023-07-13T14:28:32;100796.00;;;33.00
21336;BMP180;69435;52.670;13.544;2023-07-13T14:31:19;100795.00;;;32.80
21336;BMP180;69435;52.670;13.544;2023-07-13T14:34:05;100806.00;;;32.70
21336;BMP180;69435;52.670;13.544;2023-07-13T14:36:51;100806.00;;;32.60
21336;BMP180;69435;52.670;13.544;2023-07-13T14:39:37;100802.00;;;32.60
21336;BMP180;69435;52.670;13.544;2023-07-13T14:42:24;100799.00;;;32.60
21336;BMP180;69435;52.670;13.544;2023-07-13T14:45:15;100793.00;;;32.70
21336;BMP180;69435;52.670;13.544;2023-07-13T14:48:01;100775.00;;;32.70
21336;BMP180;69435;52.670;13.544;2023-07-13T14:50:57;100787.00;;;32.80
21336;BMP180;69435;52.670;13.544;2023-07-13T14:53:43;100797.00;;;32.70
21336;BMP180;69435;52.670;13.544;2023-07-13T14:56:29;100789.00;;;32.70
21336;BMP180;69435;52.670;13.544;2023-07-13T14:59:16;100778.00;;;32.60
21336;BMP180;69435;52.670;13.544;2023-07-13T15:02:37;100794.00;;;32.70
21336;BMP180;69435;52.670;13.544;2023-07-13T15:05:28;100774.00;;;32.50
21336;BMP180;69435;52.670;13.544;2023-07-13T15:08:15;100789.00;;;32.40
21336;BMP180;69435;52.670;13.544;2023-07-13T15:11:01;100800.00;;;32.20
21336;BMP180;69435;52.670;13.544;2023-07-13T15:13:50;100772.00;;;32.00
21336;BMP180;69435;52.670;13.544;2023-07-13T15:16:37;100758.00;;;31.90
21336;BMP180;69435;52.670;13.544;2023-07-13T15:19:23;100795.00;;;31.80
21336;BMP180;69435;52.670;13.544;2023-07-13T15:22:11;100765.00;;;31.70
21336;BMP180;69435;52.670;13.544;2023-07-13T15:24:57;100784.00;;;31.50
21336;BMP180;69435;52.670;13.544;2023-07-13T15:27:43;100781.00;;;31.30
21336;BMP180;69435;52.670;13.544;2023-07-13T15:30:36;100778.00;;;31.20
21336;BMP180;69435;52.670;13.544;2023-07-13T15:33:28;100787.00;;;31.00
21336;BMP180;69435;52.670;13.544;2023-07-13T15:36:19;100781.00;;;30.90
21336;BMP180;69435;52.670;13.544;2023-07-13T15:39:06;100779.00;;;30.90
21336;BMP180;69435;52.670;13.544;2023-07-13T15:41:52;100737.00;;;30.80
21336;BMP180;69435;52.670;13.544;2023-07-13T15:44:40;100772.00;;;30.80
21336;BMP180;69435;52.670;13.544;2023-07-13T15:47:26;100779.00;;;30.70
21336;BMP180;69435;52.670;13.544;2023-07-13T15:50:22;100777.00;;;30.70
21336;BMP180;69435;52.670;13.544;2023-07-13T15:53:09;100776.00;;;30.60
21336;BMP180;69435;52.670;13.544;2023-07-13T15:55:56;100771.00;;;30.60
21336;BMP180;69435;52.670;13.544;2023-07-13T15:58:42;100776.00;;;30.50
21336;BMP180;69435;52.670;13.544;2023-07-13T16:01:31;100770.00;;;30.50
21336;BMP180;69435;52.670;13.544;2023-07-13T16:04:18;100774.00;;;30.40
21336;BMP180;69435;52.670;13.544;2023-07-13T16:07:05;100784.00;;;30.40
21336;BMP180;69435;52.670;13.544;2023-07-13T16:09:52;100777.00;;;30.40
21336;BMP180;69435;52.670;13.544;2023-07-13T16:12:38;100787.00;;;30.40
21336;BMP180;69435;52.670;13.544;2023-07-13T16:15:24;100781.00;;;30.40
21336;BMP180;69435;52.670;13.544;2023-07-13T16:18:14;100786.00;;;30.40